Wan Hai 510 — 9VJJ8 — position and weather

sailwx.info

Track history (hours):
 
Tides and Currents Weather Stations Pressure Air Temp Water Temp Dewpoint Dewpoint Depression Visibility Wind Speed Wind Dir Waves Ship Positions

Wan Hai 510

Last reported at 2016-Sep-18 19:27 UTC. Time now 2016-Sep-30 13:28 UTC.
Position N 01°16' E 103°51'.
Warning: this ship's position is 11 days out of date.

Length 269 m; draft 10.9 m.

Type: Ship. MMSI: 565706755.

Date/timePositionNaut miles runAvg speedWind from/ knotsBaromVisibWave heightAir tempDewpointWater temp
2016-Sep-18 19:27N 01°16' E 103°51'0 0.0
2016-Sep-18 10:33N 01°16' E 103°51'8 7.7
2016-Sep-18 09:32N 01°15' E 103°58'  
2016-Sep-14 17:31N 22°27' E 113°54'0 0.0
2016-Sep-14 16:31N 22°27' E 113°54'0 0.0
2016-Sep-14 13:31N 22°27' E 113°54'0 0.0
2016-Sep-14 12:31N 22°27' E 113°54'0 0.0
2016-Sep-14 10:31N 22°27' E 113°54'0 0.0
2016-Sep-14 09:25N 22°27' E 113°54'2 2.4
2016-Sep-14 08:33N 22°25' E 113°53'4 3.2
2016-Sep-14 07:21N 22°22' E 113°55'12 1.4
2016-Sep-13 22:29N 22°20' E 114°08'0 0.0
2016-Sep-13 17:23N 22°20' E 114°08'32410.7
2016-Sep-12 11:12N 22°32' E 119°58'1318.6
2016-Sep-12 10:32N 22°32' E 120°12'8 0.3
2016-Sep-11 12:07N 22°33' E 120°20'0 0.0
2016-Sep-11 11:33N 22°33' E 120°20'5 5.1
2016-Sep-11 10:32N 22°32' E 120°14'2110.7
2016-Sep-11 08:33N 22°22' E 119°54'  
Track history (hours):
 
Tides and Currents Weather Stations Pressure Air Temp Water Temp Dewpoint Dewpoint Depression Visibility Wind Speed Wind Dir Waves Ship Positions

Wan Hai 510

Last reported at 2016-Sep-18 19:27 UTC. Time now 2016-Sep-30 13:28 UTC.
Position N 01°16' E 103°51'.
Warning: this ship's position is 11 days out of date.

Length 269 m; draft 10.9 m.

Type: Ship. MMSI: 565706755.

Date/timePositionNaut miles runAvg speedWind from/ knotsBaromVisibWave heightAir tempDewpointWater temp
2016-Sep-18 19:27N 01°16' E 103°51'0 0.0
2016-Sep-18 10:33N 01°16' E 103°51'8 7.7
2016-Sep-18 09:32N 01°15' E 103°58'  
2016-Sep-14 17:31N 22°27' E 113°54'0 0.0
2016-Sep-14 16:31N 22°27' E 113°54'0 0.0
2016-Sep-14 13:31N 22°27' E 113°54'0 0.0
2016-Sep-14 12:31N 22°27' E 113°54'0 0.0
2016-Sep-14 10:31N 22°27' E 113°54'0 0.0
2016-Sep-14 09:25N 22°27' E 113°54'2 2.4
2016-Sep-14 08:33N 22°25' E 113°53'4 3.2
2016-Sep-14 07:21N 22°22' E 113°55'12 1.4
2016-Sep-13 22:29N 22°20' E 114°08'0 0.0
2016-Sep-13 17:23N 22°20' E 114°08'32410.7
2016-Sep-12 11:12N 22°32' E 119°58'1318.6
2016-Sep-12 10:32N 22°32' E 120°12'8 0.3
2016-Sep-11 12:07N 22°33' E 120°20'0 0.0
2016-Sep-11 11:33N 22°33' E 120°20'5 5.1
2016-Sep-11 10:32N 22°32' E 120°14'2110.7
2016-Sep-11 08:33N 22°22' E 119°54'  

Dump ship's entire track history